createdAt,value
2019-06-20T00:00:39.001Z,50.97
2019-06-20T00:03:06.765Z,51.66
2019-06-20T00:05:34.580Z,51.89
2019-06-20T00:08:02.493Z,51.97
2019-06-20T00:10:30.389Z,51.75
2019-06-20T00:13:00.791Z,51.80
2019-06-20T00:15:27.920Z,51.76
2019-06-20T00:17:55.720Z,52.38
2019-06-20T00:20:23.518Z,52.25
2019-06-20T00:22:51.305Z,54.42
2019-06-20T00:25:19.090Z,56.06
2019-06-20T00:27:46.888Z,55.88
2019-06-20T00:30:15.459Z,57.00
2019-06-20T00:32:45.189Z,55.57
2019-06-20T00:35:12.977Z,56.13
2019-06-20T00:37:40.768Z,57.78
2019-06-20T00:40:09.142Z,59.54
2019-06-20T00:42:36.924Z,60.77
2019-06-20T00:45:05.583Z,61.50
2019-06-20T00:47:33.371Z,63.04
2019-06-20T00:50:01.148Z,64.01
2019-06-20T00:52:28.954Z,62.62
2019-06-20T00:54:56.723Z,63.34
2019-06-20T00:57:24.563Z,65.02
2019-06-20T00:59:52.347Z,65.47
2019-06-20T01:02:20.182Z,64.80
2019-06-20T01:04:47.997Z,71.26
2019-06-20T01:07:18.571Z,70.54
2019-06-20T01:09:46.331Z,69.87
2019-06-20T01:12:14.166Z,72.49
2019-06-20T01:14:41.945Z,72.35
2019-06-20T01:17:09.729Z,73.08
2019-06-20T01:19:37.573Z,74.81
2019-06-20T01:22:05.390Z,73.61
2019-06-20T01:24:33.292Z,73.58
2019-06-20T01:27:01.115Z,71.52
2019-06-20T01:29:28.869Z,71.45
2019-06-20T01:31:56.651Z,74.47
2019-06-20T01:34:24.436Z,74.44
2019-06-20T01:36:52.241Z,71.95
2019-06-20T01:39:20.010Z,71.62
2019-06-20T01:41:50.793Z,71.32
2019-06-20T01:44:18.583Z,69.21
2019-06-20T01:46:46.399Z,68.14
2019-06-20T01:49:14.166Z,70.79
2019-06-20T01:51:41.986Z,70.64
2019-06-20T01:54:09.739Z,70.54
2019-06-20T01:56:37.516Z,71.00
2019-06-20T01:59:05.327Z,69.01
2019-06-20T02:01:33.159Z,68.64
2019-06-20T02:04:00.977Z,68.90
2019-06-20T02:06:28.744Z,69.81
2019-06-20T02:11:23.983Z,73.90
2019-06-20T02:14:06.428Z,72.39
2019-06-20T02:16:21.494Z,71.47
2019-06-20T02:18:49.329Z,71.87
2019-06-20T02:21:17.096Z,72.20
2019-06-20T02:23:44.912Z,69.22
2019-06-20T02:26:12.701Z,71.06
2019-06-20T02:28:40.500Z,72.87
2019-06-20T02:31:08.272Z,71.52
2019-06-20T02:33:36.042Z,71.04
2019-06-20T02:36:03.865Z,73.82
2019-06-20T02:38:31.772Z,73.78
2019-06-20T02:40:59.534Z,71.37
2019-06-20T02:43:27.517Z,71.91
2019-06-20T02:45:55.354Z,70.62
2019-06-20T02:48:23.155Z,72.19
2019-06-20T02:50:50.917Z,70.87
2019-06-20T02:53:18.692Z,70.86
2019-06-20T02:55:46.639Z,70.75
2019-06-20T02:58:14.538Z,68.96
2019-06-20T03:00:55.538Z,69.41
2019-06-20T03:03:23.533Z,69.97
2019-06-20T03:05:51.401Z,70.73
2019-06-20T03:08:19.210Z,71.31
2019-06-20T03:10:46.978Z,70.09
2019-06-20T03:13:14.777Z,70.41
2019-06-20T03:15:42.580Z,70.53
2019-06-20T03:18:10.378Z,70.86
2019-06-20T03:20:38.145Z,71.06
2019-06-20T03:23:05.961Z,71.12
2019-06-20T03:25:33.745Z,71.76
2019-06-20T03:28:01.557Z,71.62
2019-06-20T03:30:29.487Z,70.81
2019-06-20T03:32:57.361Z,71.83
2019-06-20T03:35:25.185Z,71.26
2019-06-20T03:37:52.998Z,71.07
2019-06-20T03:40:20.785Z,71.43
2019-06-20T03:42:48.702Z,71.75
2019-06-20T03:45:16.445Z,72.50
2019-06-20T03:47:44.256Z,72.02
2019-06-20T03:50:12.231Z,72.84
2019-06-20T03:52:40.006Z,72.24
2019-06-20T03:55:08.400Z,73.35
2019-06-20T03:57:36.162Z,72.91
2019-06-20T04:00:05.111Z,73.46
2019-06-20T04:02:32.895Z,72.77
2019-06-20T04:05:01.048Z,72.60
2019-06-20T04:07:28.863Z,73.57
2019-06-20T04:09:56.631Z,73.91
2019-06-20T04:12:24.405Z,73.47
2019-06-20T04:14:52.198Z,73.56
2019-06-20T04:17:19.989Z,72.85
2019-06-20T04:19:47.781Z,72.21
2019-06-20T04:22:15.594Z,72.58
2019-06-20T04:24:43.422Z,73.07
2019-06-20T04:27:11.228Z,72.11
2019-06-20T04:29:39.044Z,73.31
2019-06-20T04:32:06.834Z,72.34
2019-06-20T04:34:34.724Z,72.92
2019-06-20T04:37:02.474Z,73.26
2019-06-20T04:39:30.289Z,73.20
2019-06-20T04:41:58.048Z,72.45
2019-06-20T04:44:25.913Z,72.49
2019-06-20T04:46:59.791Z,73.24
2019-06-20T04:49:27.646Z,72.84
2019-06-20T04:51:55.463Z,71.75
2019-06-20T04:54:23.298Z,73.29
2019-06-20T04:56:51.099Z,72.90
2019-06-20T04:59:18.943Z,73.16
2019-06-20T05:01:46.711Z,72.45
2019-06-20T05:04:14.520Z,71.99
2019-06-20T05:06:46.414Z,72.04
2019-06-20T05:09:14.210Z,71.61
2019-06-20T05:11:41.998Z,71.45
2019-06-20T05:14:09.823Z,71.23
2019-06-20T05:16:37.633Z,71.18
2019-06-20T05:19:05.454Z,71.26
2019-06-20T05:21:33.258Z,70.30
2019-06-20T05:24:01.071Z,69.45
2019-06-20T05:26:28.875Z,68.22
2019-06-20T05:28:56.655Z,67.35
2019-06-20T05:31:24.468Z,66.78
2019-06-20T05:33:52.426Z,66.63
2019-06-20T05:36:20.281Z,65.57
2019-06-20T05:38:48.052Z,65.17
2019-06-20T05:41:15.904Z,64.45
2019-06-20T05:43:43.732Z,63.98
2019-06-20T05:46:11.795Z,64.73
2019-06-20T05:48:39.566Z,65.38
2019-06-20T05:51:07.352Z,65.03
2019-06-20T05:53:35.153Z,63.16
2019-06-20T05:56:02.961Z,62.71
2019-06-20T05:58:30.754Z,63.63
2019-06-20T06:00:58.565Z,64.22
2019-06-20T06:03:26.408Z,64.45
2019-06-20T06:05:54.658Z,63.37
2019-06-20T06:08:22.594Z,63.44
2019-06-20T06:10:50.381Z,63.39
2019-06-20T06:13:18.191Z,61.80
2019-06-20T06:15:46.031Z,63.64
2019-06-20T06:18:14.222Z,63.17
2019-06-20T06:20:44.801Z,64.17
2019-06-20T06:23:11.844Z,64.89
2019-06-20T06:25:41.096Z,65.63
2019-06-20T06:28:12.242Z,65.06
2019-06-20T06:30:38.779Z,65.38
2019-06-20T06:33:06.524Z,66.90
2019-06-20T06:35:34.362Z,66.87
2019-06-20T06:38:02.180Z,67.64
2019-06-20T06:40:30.245Z,68.10
2019-06-20T06:42:58.146Z,67.97
2019-06-20T06:45:25.950Z,67.22
2019-06-20T06:47:53.751Z,67.71
2019-06-20T06:50:21.870Z,67.64
2019-06-20T06:52:49.681Z,67.19
2019-06-20T06:55:18.581Z,66.71
2019-06-20T06:57:46.457Z,66.03
2019-06-20T07:00:16.383Z,65.57
2019-06-20T07:02:44.202Z,64.92
2019-06-20T07:05:12.339Z,64.31
2019-06-20T07:07:40.315Z,64.31
2019-06-20T07:10:08.998Z,65.00
2019-06-20T07:12:36.970Z,65.78
2019-06-20T07:15:05.892Z,64.51
2019-06-20T07:17:33.714Z,62.70
2019-06-20T07:20:01.472Z,63.13
2019-06-20T07:22:29.583Z,64.59
2019-06-20T07:24:57.380Z,64.45
2019-06-20T07:27:25.165Z,63.76
2019-06-20T07:29:52.965Z,63.52
2019-06-20T07:32:20.847Z,63.26
2019-06-20T07:34:49.122Z,64.31
2019-06-20T07:37:16.925Z,64.16
2019-06-20T07:39:44.739Z,63.62
2019-06-20T07:42:12.523Z,63.88
2019-06-20T07:44:40.375Z,62.80
2019-06-20T07:47:16.941Z,62.26
2019-06-20T07:49:37.811Z,61.56
2019-06-20T07:52:05.714Z,61.42
2019-06-20T07:54:33.517Z,61.47
2019-06-20T07:57:01.358Z,62.08
2019-06-20T07:59:29.107Z,61.76
2019-06-20T08:01:56.932Z,60.52
2019-06-20T08:04:24.698Z,60.39
2019-06-20T08:06:52.526Z,61.26
2019-06-20T08:09:22.166Z,60.55
2019-06-20T08:11:49.981Z,60.01
2019-06-20T08:14:17.735Z,58.92
2019-06-20T08:16:45.511Z,57.93
2019-06-20T08:19:13.286Z,56.97
2019-06-20T08:21:44.054Z,58.11
2019-06-20T08:24:10.798Z,58.55
2019-06-20T08:26:38.618Z,57.15
2019-06-20T08:29:19.731Z,57.05
2019-06-20T08:31:36.122Z,58.23
2019-06-20T08:34:04.442Z,58.38
2019-06-20T08:36:32.338Z,58.74
2019-06-20T08:39:00.285Z,58.96
2019-06-20T08:41:29.578Z,58.49
2019-06-20T08:43:58.459Z,57.16
2019-06-20T08:46:27.062Z,57.00
2019-06-20T08:48:54.917Z,57.17
2019-06-20T08:51:24.522Z,56.06
2019-06-20T08:53:52.298Z,56.76
2019-06-20T08:56:20.113Z,56.58
2019-06-20T08:58:47.865Z,57.29
2019-06-20T09:01:15.645Z,56.26
2019-06-20T09:03:43.470Z,55.67
2019-06-20T09:06:11.259Z,55.36
2019-06-20T09:08:39.022Z,54.52
2019-06-20T09:11:09.601Z,54.96
2019-06-20T09:13:39.950Z,55.21
2019-06-20T09:16:07.558Z,51.13
2019-06-20T09:18:35.369Z,48.90
2019-06-20T09:21:03.129Z,50.97
2019-06-20T09:23:30.955Z,50.76
2019-06-20T09:25:59.651Z,48.91
2019-06-20T09:28:27.619Z,48.05
2019-06-20T09:30:55.400Z,50.50
2019-06-20T09:33:23.223Z,48.44
2019-06-20T09:35:53.583Z,48.57
2019-06-20T09:38:23.319Z,48.43
2019-06-20T09:40:51.922Z,48.68
2019-06-20T09:43:27.650Z,47.30
2019-06-20T09:45:51.421Z,48.42
2019-06-20T09:48:20.303Z,48.43
2019-06-20T09:50:49.307Z,49.02
2019-06-20T09:53:17.783Z,45.27
2019-06-20T09:55:45.568Z,43.63
2019-06-20T09:58:13.366Z,44.77
2019-06-20T10:00:41.683Z,45.95
2019-06-20T10:03:09.744Z,44.89
2019-06-20T10:05:37.832Z,45.60
2019-06-20T10:08:06.034Z,44.41
2019-06-20T10:10:35.218Z,46.33
2019-06-20T10:13:02.989Z,45.70
2019-06-20T10:15:32.106Z,43.45
2019-06-20T10:17:59.905Z,45.54
2019-06-20T10:20:27.878Z,42.91
2019-06-20T10:22:55.674Z,42.48
2019-06-20T10:25:24.056Z,42.64
2019-06-20T10:27:53.407Z,43.27
2019-06-20T10:30:22.488Z,44.15
2019-06-20T10:32:51.002Z,44.26
2019-06-20T10:35:18.989Z,42.99
2019-06-20T10:37:48.370Z,40.49
2019-06-20T10:40:18.744Z,42.67
2019-06-20T10:42:48.054Z,41.88
2019-06-20T10:45:17.744Z,40.87
2019-06-20T10:47:47.095Z,40.12
2019-06-20T10:50:17.042Z,41.69
2019-06-20T10:52:45.269Z,43.40
2019-06-20T10:55:13.393Z,41.11
2019-06-20T10:57:41.840Z,42.35
2019-06-20T11:00:26.789Z,43.02
2019-06-20T11:02:43.438Z,45.81
2019-06-20T11:05:12.949Z,44.76
2019-06-20T11:07:42.055Z,42.91
2019-06-20T11:10:10.935Z,44.35
2019-06-20T11:12:45.619Z,43.66
2019-06-20T11:15:09.612Z,43.15
2019-06-20T11:17:38.623Z,42.83
2019-06-20T11:20:08.064Z,43.20
2019-06-20T11:22:37.780Z,44.73
2019-06-20T11:25:06.537Z,44.84
2019-06-20T11:27:34.319Z,44.53
2019-06-20T11:30:02.135Z,43.85
2019-06-20T11:32:30.000Z,44.93
2019-06-20T11:34:57.960Z,43.97
2019-06-20T11:37:25.754Z,43.08
2019-06-20T11:39:53.732Z,44.70
2019-06-20T11:42:21.668Z,42.30
2019-06-20T11:44:49.538Z,44.89
2019-06-20T11:47:20.416Z,44.31
2019-06-20T11:49:48.325Z,43.89
2019-06-20T11:52:16.208Z,45.48
2019-06-20T11:54:44.123Z,45.73
2019-06-20T11:57:11.919Z,45.20
2019-06-20T11:59:40.041Z,45.85
2019-06-20T12:02:10.942Z,45.88
2019-06-20T12:04:40.058Z,46.25
2019-06-20T12:07:10.178Z,46.25
2019-06-20T12:09:39.560Z,45.81
2019-06-20T12:12:08.286Z,45.24
2019-06-20T12:14:36.205Z,45.86
2019-06-20T12:17:04.051Z,46.59
2019-06-20T12:19:31.959Z,45.83
2019-06-20T12:22:00.545Z,46.01
2019-06-20T12:24:28.540Z,44.69
2019-06-20T12:26:56.486Z,44.33
2019-06-20T12:29:24.518Z,44.80
2019-06-20T12:31:52.887Z,44.62
2019-06-20T12:34:20.762Z,46.04
2019-06-20T12:36:48.686Z,46.06
2019-06-20T12:39:16.597Z,44.73
2019-06-20T12:41:45.606Z,45.32
2019-06-20T12:44:13.653Z,45.93
2019-06-20T12:46:42.614Z,44.27
2019-06-20T12:49:10.539Z,44.87
2019-06-20T12:51:39.130Z,45.00
2019-06-20T12:54:08.100Z,44.39
2019-06-20T12:56:35.902Z,44.64
2019-06-20T12:59:03.865Z,45.34
2019-06-20T13:01:38.855Z,46.88
2019-06-20T13:04:01.483Z,46.36
2019-06-20T13:06:29.288Z,47.62
2019-06-20T13:08:57.128Z,48.92
2019-06-20T13:11:24.928Z,52.27
2019-06-20T13:13:52.722Z,53.52
2019-06-20T13:16:20.782Z,53.10
2019-06-20T13:18:48.666Z,54.10
2019-06-20T13:21:18.969Z,52.72
2019-06-20T13:23:47.227Z,52.92
2019-06-20T13:26:15.217Z,52.52
2019-06-20T13:28:59.070Z,51.67
2019-06-20T13:31:12.833Z,50.71
2019-06-20T13:33:40.999Z,50.63
2019-06-20T13:36:09.588Z,49.66
2019-06-20T13:38:38.028Z,48.72
2019-06-20T13:41:07.364Z,49.01
2019-06-20T13:43:35.256Z,48.54
2019-06-20T13:46:03.516Z,48.85
2019-06-20T13:48:42.215Z,49.09
2019-06-20T13:51:19.525Z,49.78
2019-06-20T13:53:48.629Z,48.31
2019-06-20T13:56:17.144Z,48.65
2019-06-20T13:58:45.052Z,48.69
2019-06-20T14:01:14.674Z,49.12
2019-06-20T14:03:44.043Z,49.22
2019-06-20T14:06:12.253Z,48.84
2019-06-20T14:08:42.368Z,48.79
2019-06-20T14:11:10.175Z,46.85
2019-06-20T14:13:38.005Z,47.52
2019-06-20T14:16:05.846Z,48.16
2019-06-20T14:18:33.641Z,48.69
2019-06-20T14:21:01.477Z,48.82
2019-06-20T14:23:30.523Z,49.07
2019-06-20T14:25:58.383Z,50.08
2019-06-20T14:28:26.227Z,49.29
2019-06-20T14:30:54.048Z,49.34
2019-06-20T14:33:21.864Z,50.31
2019-06-20T14:35:51.084Z,49.92
2019-06-20T14:38:19.044Z,48.68
2019-06-20T14:40:48.209Z,47.98
2019-06-20T14:43:16.254Z,47.92
2019-06-20T14:45:45.533Z,49.45
2019-06-20T14:48:14.207Z,49.07
2019-06-20T14:50:43.832Z,48.60
2019-06-20T14:53:11.790Z,48.87
2019-06-20T14:55:39.655Z,49.46
2019-06-20T14:58:07.548Z,49.09
2019-06-20T15:00:35.380Z,46.83
2019-06-20T15:03:03.446Z,47.60
2019-06-20T15:05:34.708Z,46.84
2019-06-20T15:08:00.964Z,47.72
2019-06-20T15:10:28.781Z,46.12
2019-06-20T15:12:58.501Z,47.44
2019-06-20T15:15:26.363Z,47.39
2019-06-20T15:17:58.094Z,47.42
2019-06-20T15:20:26.184Z,50.40
2019-06-20T15:22:54.689Z,55.73
2019-06-20T15:25:24.084Z,60.24
2019-06-20T15:27:53.946Z,62.77
2019-06-20T15:30:21.762Z,62.50
2019-06-20T15:33:04.384Z,63.28
2019-06-20T15:35:19.473Z,63.27
2019-06-20T15:37:49.908Z,63.67
2019-06-20T15:40:18.513Z,64.52
2019-06-20T15:42:47.098Z,63.77
2019-06-20T15:45:16.119Z,64.89
2019-06-20T15:47:45.809Z,65.25
2019-06-20T15:50:15.848Z,63.36
2019-06-20T15:52:43.665Z,62.11
2019-06-20T15:55:11.551Z,62.59
2019-06-20T15:57:39.681Z,62.41
2019-06-20T16:00:08.638Z,61.37
2019-06-20T16:02:36.482Z,60.22
2019-06-20T16:05:05.346Z,58.73
2019-06-20T16:07:33.181Z,59.38
2019-06-20T16:10:01.007Z,60.00
2019-06-20T16:12:28.833Z,60.04
2019-06-20T16:14:56.746Z,59.83
2019-06-20T16:17:24.612Z,57.11
2019-06-20T16:19:52.479Z,57.49
2019-06-20T16:22:20.385Z,55.16
2019-06-20T16:24:48.229Z,56.25
2019-06-20T16:27:16.390Z,55.13
2019-06-20T16:29:44.231Z,53.85
2019-06-20T16:32:12.054Z,55.20
2019-06-20T16:34:39.897Z,56.10
2019-06-20T16:37:10.465Z,55.34
2019-06-20T16:39:37.533Z,54.38
2019-06-20T16:42:05.368Z,54.66
2019-06-20T16:44:33.196Z,54.41
2019-06-20T16:47:01.008Z,53.41
2019-06-20T16:49:28.899Z,52.06
2019-06-20T16:51:57.105Z,51.38
2019-06-20T16:54:25.729Z,51.92
2019-06-20T16:56:54.861Z,51.56
2019-06-20T16:59:23.205Z,50.64
2019-06-20T17:01:51.041Z,50.98
2019-06-20T17:04:20.645Z,50.27
2019-06-20T17:06:50.098Z,50.82
2019-06-20T17:09:23.048Z,50.93
2019-06-20T17:11:50.908Z,51.02
2019-06-20T17:14:18.849Z,51.68
2019-06-20T17:16:46.703Z,50.63
2019-06-20T17:19:14.483Z,49.80
2019-06-20T17:21:42.335Z,50.97
2019-06-20T17:24:10.414Z,50.49
2019-06-20T17:26:38.190Z,50.35
2019-06-20T17:29:06.103Z,49.72
2019-06-20T17:31:34.028Z,50.82
2019-06-20T17:34:01.932Z,50.48
2019-06-20T17:36:29.696Z,51.71
2019-06-20T17:38:57.518Z,51.27
2019-06-20T17:41:25.390Z,50.90
2019-06-20T17:43:53.189Z,51.27
2019-06-20T17:46:21.010Z,51.78
2019-06-20T17:48:48.825Z,53.73
2019-06-20T17:51:16.756Z,56.70
2019-06-20T17:53:44.515Z,69.13
2019-06-20T17:56:12.384Z,96.12
2019-06-20T17:58:40.147Z,98.76
2019-06-20T18:01:07.997Z,98.58
2019-06-20T18:03:35.755Z,94.53
2019-06-20T18:06:03.542Z,92.97
2019-06-20T18:08:31.353Z,90.60
2019-06-20T18:10:59.157Z,89.58
2019-06-20T18:13:26.994Z,88.90
2019-06-20T18:15:54.807Z,86.12
2019-06-20T18:18:22.612Z,87.85
2019-06-20T18:20:50.387Z,85.37
2019-06-20T18:23:18.236Z,86.17
2019-06-20T18:25:46.052Z,85.57
2019-06-20T18:28:13.829Z,86.00
2019-06-20T18:30:43.118Z,83.93
2019-06-20T18:33:11.122Z,83.79
2019-06-20T18:35:38.991Z,84.41
2019-06-20T18:38:06.894Z,83.58
2019-06-20T18:40:34.683Z,84.23
2019-06-20T18:43:02.809Z,82.62
2019-06-20T18:45:30.695Z,82.97
2019-06-20T18:47:58.476Z,82.83
2019-06-20T18:50:26.319Z,81.80
2019-06-20T18:52:54.123Z,81.98
2019-06-20T18:55:21.908Z,82.33
2019-06-20T18:57:50.056Z,82.54
2019-06-20T19:00:33.605Z,82.08
2019-06-20T19:02:50.087Z,81.56
2019-06-20T19:05:17.992Z,82.13
2019-06-20T19:07:45.826Z,82.21
2019-06-20T19:10:19.762Z,81.53
2019-06-20T19:12:47.568Z,80.88
2019-06-20T19:15:15.829Z,81.22
2019-06-20T19:17:43.653Z,81.29
2019-06-20T19:20:13.413Z,81.51
2019-06-20T19:22:41.194Z,81.82
2019-06-20T19:25:10.629Z,78.21
2019-06-20T19:27:46.055Z,77.08
2019-06-20T19:30:10.492Z,76.31
2019-06-20T19:32:38.485Z,76.75
2019-06-20T19:35:09.859Z,78.58
2019-06-20T19:37:36.025Z,79.23
2019-06-20T19:40:05.560Z,79.48
2019-06-20T19:42:33.351Z,78.88
2019-06-20T19:45:01.632Z,78.58
2019-06-20T19:47:29.506Z,78.82
2019-06-20T19:49:57.434Z,78.72
2019-06-20T19:52:25.330Z,76.95
2019-06-20T19:54:53.107Z,76.89
2019-06-20T19:57:21.201Z,77.93
2019-06-20T19:59:49.013Z,79.22
2019-06-20T20:02:16.785Z,80.47
2019-06-20T20:04:44.537Z,79.65
2019-06-20T20:07:12.344Z,79.81
2019-06-20T20:09:40.160Z,80.23
2019-06-20T20:12:09.103Z,79.64
2019-06-20T20:14:36.960Z,79.18
2019-06-20T20:17:04.731Z,78.27
2019-06-20T20:19:32.491Z,76.88
2019-06-20T20:22:00.945Z,77.38
2019-06-20T20:24:28.678Z,78.96
2019-06-20T20:26:56.507Z,80.49
2019-06-20T20:29:24.282Z,81.34
2019-06-20T20:31:52.132Z,82.45
2019-06-20T20:34:19.898Z,83.08
2019-06-20T20:36:47.697Z,82.84
2019-06-20T20:39:17.042Z,83.60
2019-06-20T20:41:45.173Z,84.09
2019-06-20T20:44:12.954Z,82.66
2019-06-20T20:46:40.753Z,83.21
2019-06-20T20:49:08.593Z,82.56
2019-06-20T20:51:36.387Z,82.93
2019-06-20T20:54:04.161Z,83.33
2019-06-20T20:56:31.947Z,83.69
2019-06-20T20:58:59.784Z,82.60
2019-06-20T21:01:30.280Z,81.80
2019-06-20T21:03:59.213Z,82.43
2019-06-20T21:06:27.670Z,82.60
2019-06-20T21:08:55.531Z,82.91
2019-06-20T21:11:23.293Z,82.54
2019-06-20T21:13:51.081Z,83.34
2019-06-20T21:16:18.860Z,82.99
2019-06-20T21:18:46.660Z,86.20
2019-06-20T21:21:14.445Z,87.19
2019-06-20T21:23:42.157Z,86.93
2019-06-20T21:26:09.957Z,85.86
2019-06-20T21:28:37.773Z,85.00
2019-06-20T21:31:05.553Z,82.60
2019-06-20T21:33:35.117Z,77.07
2019-06-20T21:36:08.373Z,75.52
2019-06-20T21:38:32.634Z,76.14
2019-06-20T21:41:00.429Z,75.37
2019-06-20T21:43:28.483Z,75.16
2019-06-20T21:45:56.338Z,74.68
2019-06-20T21:48:24.095Z,74.26
2019-06-20T21:50:51.909Z,72.97
2019-06-20T21:53:19.682Z,73.55
2019-06-20T21:55:47.530Z,73.78
2019-06-20T21:58:15.290Z,72.11
2019-06-20T22:00:48.782Z,72.07
2019-06-20T22:03:16.557Z,71.38
2019-06-20T22:05:44.729Z,71.45
2019-06-20T22:08:12.525Z,71.21
2019-06-20T22:10:40.322Z,71.70
2019-06-20T22:13:08.184Z,71.32
2019-06-20T22:15:36.634Z,70.50
2019-06-20T22:18:04.500Z,71.00
2019-06-20T22:20:32.292Z,71.21
2019-06-20T22:23:00.053Z,69.81
2019-06-20T22:25:27.988Z,71.17
2019-06-20T22:27:55.751Z,69.63
2019-06-20T22:30:48.201Z,70.30
2019-06-20T22:33:15.982Z,69.39
2019-06-20T22:35:45.920Z,70.58
2019-06-20T22:38:14.000Z,70.48
2019-06-20T22:40:41.824Z,70.74
2019-06-20T22:43:09.600Z,69.90
2019-06-20T22:45:37.350Z,69.36
2019-06-20T22:48:05.138Z,69.59
2019-06-20T22:50:32.950Z,70.41
2019-06-20T22:53:00.745Z,70.17
2019-06-20T22:55:28.613Z,70.03
2019-06-20T22:57:56.369Z,69.73
2019-06-20T23:00:24.182Z,69.98
2019-06-20T23:02:51.975Z,71.49
2019-06-20T23:05:19.740Z,71.29
2019-06-20T23:07:47.523Z,70.42
2019-06-20T23:10:16.042Z,70.67
2019-06-20T23:12:43.843Z,69.65
2019-06-20T23:15:12.067Z,69.48
2019-06-20T23:17:39.859Z,70.53
2019-06-20T23:20:08.417Z,71.34
2019-06-20T23:22:36.218Z,72.04
2019-06-20T23:25:04.644Z,71.97
2019-06-20T23:27:32.463Z,72.27
2019-06-20T23:30:00.246Z,72.38
2019-06-20T23:32:28.027Z,73.01
2019-06-20T23:34:55.801Z,73.39
2019-06-20T23:37:23.564Z,73.86
2019-06-20T23:39:51.363Z,72.94
2019-06-20T23:42:19.155Z,72.11
2019-06-20T23:44:47.008Z,72.56
2019-06-20T23:47:14.805Z,71.50
2019-06-20T23:49:42.569Z,70.44
2019-06-20T23:52:15.228Z,69.68
2019-06-20T23:54:43.023Z,69.00
2019-06-20T23:57:10.819Z,69.13
2019-06-20T23:59:38.597Z,68.52
